Terminal Aerodrome Forecast
Issued by NWS Bismarck, ND

Home | Current Version | Previous Version | Graphics & Text | Print | Product List | Glossary Off
Versions: 1 2 3 4 5 6 7 8 9 10 11 12 13 14 15 16 17 18

049
FTUS43 KBIS 122331
TAFBIS
TAF
KBIS 122331Z 1300/1324 12006KT P6SM SCT250
     FM130700 13009KT P6SM SCT035 OVC100
     FM131200 14013KT 5SM -SN BR OVC025
     FM131500 15014KT P6SM OVC015
     FM131800 15016KT P6SM -SN OVC012
     FM132100 14005KT 3SM -SN BR OVC010=

USA.gov is the U.S. government's official web portal to all federal, state and local government web resources and services.